createdAt,value
2022-07-31T00:00:25.874Z,17.00
2022-07-31T00:02:55.602Z,17.00
2022-07-31T00:05:23.934Z,17.00
2022-07-31T00:07:53.935Z,17.00
2022-07-31T00:10:22.142Z,17.00
2022-07-31T00:12:50.503Z,17.00
2022-07-31T00:15:18.888Z,17.00
2022-07-31T00:17:47.010Z,17.00
2022-07-31T00:20:18.843Z,17.00
2022-07-31T00:22:48.735Z,17.00
2022-07-31T00:25:18.070Z,17.00
2022-07-31T00:27:46.297Z,17.00
2022-07-31T00:30:16.877Z,17.00
2022-07-31T00:32:45.451Z,17.00
2022-07-31T00:35:14.699Z,17.00
2022-07-31T00:37:45.461Z,16.90
2022-07-31T00:40:15.901Z,16.80
2022-07-31T00:42:44.605Z,16.80
2022-07-31T00:45:13.952Z,16.70
2022-07-31T00:47:42.645Z,16.60
2022-07-31T00:50:12.224Z,16.60
2022-07-31T00:52:40.526Z,16.50
2022-07-31T00:55:11.114Z,16.50
2022-07-31T00:57:39.284Z,16.50
2022-07-31T01:00:08.875Z,16.50
2022-07-31T01:02:38.484Z,16.50
2022-07-31T01:05:15.358Z,16.50
2022-07-31T01:07:43.623Z,16.50
2022-07-31T01:10:25.021Z,16.50
2022-07-31T01:12:57.748Z,16.50
2022-07-31T01:15:28.264Z,16.50
2022-07-31T01:17:59.647Z,16.50
2022-07-31T01:20:29.364Z,16.50
2022-07-31T01:26:39.149Z,16.60
2022-07-31T01:29:20.185Z,16.70
2022-07-31T01:31:54.655Z,16.70
2022-07-31T01:34:28.707Z,16.80
2022-07-31T01:37:04.061Z,16.80
2022-07-31T01:39:58.484Z,16.90
2022-07-31T01:42:28.390Z,16.90
2022-07-31T01:45:02.234Z,16.90
2022-07-31T01:47:32.888Z,17.00
2022-07-31T01:50:04.958Z,16.90
2022-07-31T01:52:35.256Z,17.00
2022-07-31T01:55:05.765Z,17.00
2022-07-31T01:57:37.112Z,17.00
2022-07-31T02:00:28.608Z,17.00
2022-07-31T02:03:01.520Z,17.00
2022-07-31T02:05:43.110Z,17.10
2022-07-31T02:08:22.806Z,17.10
2022-07-31T02:10:55.627Z,17.10
2022-07-31T02:13:26.579Z,17.10
2022-07-31T02:15:57.213Z,17.10
2022-07-31T02:18:32.313Z,17.10
2022-07-31T02:21:19.970Z,17.20
2022-07-31T02:23:48.437Z,17.10
2022-07-31T02:26:17.945Z,17.10
2022-07-31T02:28:49.424Z,17.10
2022-07-31T02:34:18.313Z,17.10
2022-07-31T02:36:48.290Z,17.10
2022-07-31T02:39:17.561Z,17.20
2022-07-31T02:41:47.437Z,17.10
2022-07-31T02:44:16.672Z,17.20
2022-07-31T02:46:58.192Z,17.20
2022-07-31T02:49:28.544Z,17.20
2022-07-31T02:51:57.525Z,17.20
2022-07-31T02:54:27.002Z,17.20
2022-07-31T02:56:56.557Z,17.20
2022-07-31T02:59:26.102Z,17.20
2022-07-31T03:02:01.758Z,17.20
2022-07-31T03:04:33.189Z,17.20
2022-07-31T03:07:02.122Z,17.20
2022-07-31T03:09:31.066Z,17.20
2022-07-31T03:12:19.534Z,17.30
2022-07-31T03:14:48.090Z,17.30
2022-07-31T03:17:16.794Z,17.20
2022-07-31T03:19:47.675Z,17.30
2022-07-31T03:22:16.018Z,17.30
2022-07-31T03:24:44.504Z,17.20
2022-07-31T03:27:14.812Z,17.20
2022-07-31T03:29:43.884Z,17.20
2022-07-31T03:32:13.054Z,17.20
2022-07-31T03:34:41.157Z,17.20
2022-07-31T03:37:11.288Z,17.20
2022-07-31T03:39:39.603Z,17.20
2022-07-31T03:42:18.820Z,17.20
2022-07-31T03:44:49.334Z,17.20
2022-07-31T03:47:17.888Z,17.20
2022-07-31T03:49:46.614Z,17.20
2022-07-31T03:52:16.978Z,17.20
2022-07-31T03:54:46.416Z,17.20
2022-07-31T03:57:20.876Z,17.30
2022-07-31T03:59:57.878Z,17.30
2022-07-31T04:02:27.208Z,17.30
2022-07-31T04:05:08.159Z,17.30
2022-07-31T04:07:39.433Z,17.30
2022-07-31T04:10:08.947Z,17.40
2022-07-31T04:12:36.906Z,17.40
2022-07-31T04:15:05.598Z,17.40
2022-07-31T04:17:34.044Z,17.40
2022-07-31T04:20:02.601Z,17.40
2022-07-31T04:22:35.011Z,17.50
2022-07-31T04:25:08.514Z,17.50
2022-07-31T04:28:01.620Z,17.50
2022-07-31T04:30:31.324Z,17.50
2022-07-31T04:33:00.334Z,17.50
2022-07-31T04:35:28.990Z,17.50
2022-07-31T04:37:56.994Z,17.60
2022-07-31T04:40:27.524Z,17.60
2022-07-31T04:42:56.073Z,17.60
2022-07-31T04:45:24.212Z,17.60
2022-07-31T04:47:52.355Z,17.70
2022-07-31T04:50:21.053Z,17.80
2022-07-31T04:52:59.637Z,17.80
2022-07-31T04:55:35.164Z,17.90
2022-07-31T04:58:03.239Z,17.90
2022-07-31T05:00:51.967Z,18.00
2022-07-31T05:03:20.674Z,18.00
2022-07-31T05:05:49.960Z,18.10
2022-07-31T05:08:18.661Z,18.10
2022-07-31T05:11:07.331Z,18.20
2022-07-31T05:13:35.951Z,18.20
2022-07-31T05:16:04.217Z,18.20
2022-07-31T05:18:33.760Z,18.30
2022-07-31T05:21:21.004Z,18.30
2022-07-31T05:24:04.952Z,18.30
2022-07-31T05:26:48.361Z,18.30
2022-07-31T05:29:16.874Z,18.20
2022-07-31T05:32:00.460Z,18.20
2022-07-31T05:34:31.152Z,18.20
2022-07-31T05:37:01.341Z,18.30
2022-07-31T05:39:32.500Z,18.20
2022-07-31T05:42:31.240Z,18.20
2022-07-31T05:45:14.861Z,18.30
2022-07-31T05:47:43.102Z,18.40
2022-07-31T05:50:11.451Z,18.50
2022-07-31T05:52:40.757Z,18.70
2022-07-31T05:55:50.142Z,19.00
2022-07-31T05:58:35.173Z,19.30
2022-07-31T06:01:04.737Z,19.50
2022-07-31T06:03:50.479Z,19.60
2022-07-31T06:06:27.559Z,19.90
2022-07-31T06:08:59.457Z,20.10
2022-07-31T06:11:35.125Z,20.40
2022-07-31T06:14:05.100Z,20.60
2022-07-31T06:16:53.103Z,20.70
2022-07-31T06:19:24.517Z,20.90
2022-07-31T06:21:54.220Z,20.90
2022-07-31T06:24:23.605Z,21.00
2022-07-31T06:26:57.771Z,21.20
2022-07-31T06:32:16.525Z,21.40
2022-07-31T06:34:44.915Z,21.40
2022-07-31T06:37:13.152Z,21.60
2022-07-31T06:39:54.670Z,21.60
2022-07-31T06:42:56.614Z,21.80
2022-07-31T06:45:51.184Z,21.80
2022-07-31T06:48:39.452Z,21.70
2022-07-31T06:51:30.461Z,21.50
2022-07-31T06:54:00.191Z,21.40
2022-07-31T06:56:28.487Z,21.50
2022-07-31T06:58:56.907Z,21.60
2022-07-31T07:01:26.446Z,21.60
2022-07-31T07:03:55.587Z,21.80
2022-07-31T07:06:23.799Z,22.20
2022-07-31T07:08:52.168Z,22.20
2022-07-31T07:11:22.022Z,22.00
2022-07-31T07:13:50.796Z,22.20
2022-07-31T07:16:20.054Z,22.20
2022-07-31T07:18:50.518Z,22.30
2022-07-31T07:21:18.654Z,22.40
2022-07-31T07:23:47.883Z,22.50
2022-07-31T07:26:30.296Z,22.60
2022-07-31T07:28:59.491Z,22.60
2022-07-31T07:31:28.501Z,22.50
2022-07-31T07:34:00.599Z,22.50
2022-07-31T07:36:28.970Z,22.60
2022-07-31T07:38:59.690Z,22.50
2022-07-31T07:41:28.361Z,22.70
2022-07-31T07:43:56.409Z,22.70
2022-07-31T07:46:27.905Z,22.70
2022-07-31T07:49:00.590Z,22.80
2022-07-31T07:51:58.929Z,22.90
2022-07-31T07:54:43.765Z,22.80
2022-07-31T07:57:41.071Z,22.80
2022-07-31T08:00:28.073Z,22.80
2022-07-31T08:03:02.868Z,22.80
2022-07-31T08:05:51.235Z,22.60
2022-07-31T08:08:20.431Z,22.60
2022-07-31T08:10:48.613Z,22.70
2022-07-31T08:13:24.675Z,22.80
2022-07-31T08:16:13.150Z,23.00
2022-07-31T08:18:53.253Z,23.60
2022-07-31T08:21:22.836Z,23.80
2022-07-31T08:23:52.670Z,24.20
2022-07-31T08:26:22.490Z,24.90
2022-07-31T08:28:51.293Z,25.80
2022-07-31T08:31:24.058Z,27.10
2022-07-31T08:34:10.675Z,27.80
2022-07-31T08:37:50.353Z,28.60
2022-07-31T08:39:50.822Z,29.90
2022-07-31T08:42:19.724Z,31.20
2022-07-31T08:44:48.411Z,31.10
2022-07-31T08:47:19.651Z,32.10
2022-07-31T08:49:49.484Z,32.10
2022-07-31T08:52:21.227Z,31.90
2022-07-31T08:55:54.734Z,31.90
2022-07-31T08:58:06.043Z,31.90
2022-07-31T09:00:34.383Z,32.20
2022-07-31T09:03:04.422Z,33.10
2022-07-31T09:05:54.320Z,34.00
2022-07-31T09:08:24.039Z,33.10
2022-07-31T09:11:03.470Z,33.40
2022-07-31T09:13:37.600Z,33.00
2022-07-31T09:16:30.340Z,32.50
2022-07-31T09:19:00.786Z,32.10
2022-07-31T09:21:40.081Z,31.40
2022-07-31T09:24:11.167Z,30.80
2022-07-31T09:26:41.415Z,30.00
2022-07-31T09:29:12.543Z,29.40
2022-07-31T09:31:41.976Z,28.90
2022-07-31T09:34:36.294Z,28.50
2022-07-31T09:37:13.910Z,28.30
2022-07-31T09:40:02.038Z,27.70
2022-07-31T09:42:55.245Z,27.10
2022-07-31T09:45:26.338Z,27.00
2022-07-31T09:48:08.296Z,26.80
2022-07-31T09:50:41.096Z,26.60
2022-07-31T09:53:09.577Z,26.50
2022-07-31T09:55:51.911Z,26.40
2022-07-31T09:58:20.487Z,26.50
2022-07-31T10:00:49.252Z,26.60
2022-07-31T10:03:19.468Z,26.70
2022-07-31T10:05:49.577Z,26.90
2022-07-31T10:08:18.967Z,26.90
2022-07-31T10:11:21.146Z,26.80
2022-07-31T10:14:00.931Z,26.50
2022-07-31T10:16:33.541Z,26.40
2022-07-31T10:19:35.785Z,26.30
2022-07-31T10:22:35.447Z,26.00
2022-07-31T10:25:05.255Z,25.80
2022-07-31T10:27:39.272Z,25.80
2022-07-31T10:30:11.735Z,25.90
2022-07-31T10:32:44.946Z,26.30
2022-07-31T10:35:45.665Z,26.60
2022-07-31T10:38:48.838Z,27.20
2022-07-31T10:41:55.660Z,27.80
2022-07-31T10:44:38.676Z,28.10
2022-07-31T10:47:27.365Z,28.60
2022-07-31T10:50:05.965Z,29.00
2022-07-31T10:53:10.355Z,29.20
2022-07-31T10:56:03.527Z,29.30
2022-07-31T10:58:53.535Z,29.20
2022-07-31T11:01:52.560Z,28.90
2022-07-31T11:04:43.967Z,29.10
2022-07-31T11:07:36.488Z,30.20
2022-07-31T11:10:15.969Z,31.40
2022-07-31T11:13:11.914Z,31.50
2022-07-31T11:16:05.921Z,31.70
2022-07-31T11:19:01.955Z,31.70
2022-07-31T11:21:38.857Z,31.30
2022-07-31T11:24:16.335Z,31.90
2022-07-31T11:26:50.445Z,32.80
2022-07-31T11:29:59.631Z,32.60
2022-07-31T11:32:25.390Z,32.20
2022-07-31T11:34:56.842Z,32.10
2022-07-31T11:37:26.647Z,32.00
2022-07-31T11:40:07.494Z,32.20
2022-07-31T11:42:44.590Z,32.90
2022-07-31T11:45:15.014Z,33.20
2022-07-31T11:48:12.797Z,32.70
2022-07-31T11:50:41.928Z,31.70
2022-07-31T11:53:10.635Z,31.00
2022-07-31T11:55:52.673Z,31.00
2022-07-31T11:58:22.220Z,30.50
2022-07-31T12:00:51.954Z,29.80
2022-07-31T12:03:22.272Z,29.30
2022-07-31T12:05:53.362Z,29.00
2022-07-31T12:08:22.843Z,28.80
2022-07-31T12:10:53.336Z,28.80
2022-07-31T12:13:22.551Z,28.50
2022-07-31T12:15:58.605Z,28.50
2022-07-31T12:18:28.539Z,28.40
2022-07-31T12:20:59.694Z,28.20
2022-07-31T12:23:40.535Z,28.30
2022-07-31T12:26:12.704Z,28.50
2022-07-31T12:28:41.233Z,28.40
2022-07-31T12:31:09.345Z,28.20
2022-07-31T12:33:45.566Z,28.20
2022-07-31T12:36:16.255Z,28.10
2022-07-31T12:38:48.381Z,28.00
2022-07-31T12:41:17.927Z,27.90
2022-07-31T12:43:51.183Z,27.70
2022-07-31T12:46:21.966Z,27.50
2022-07-31T12:48:50.526Z,27.30
2022-07-31T12:51:44.144Z,27.40
2022-07-31T12:54:10.219Z,27.40
2022-07-31T12:56:39.931Z,27.40
2022-07-31T12:59:09.051Z,27.50
2022-07-31T13:01:37.828Z,27.70
2022-07-31T13:04:07.830Z,27.90
2022-07-31T13:06:38.665Z,28.00
2022-07-31T13:09:06.734Z,28.20
2022-07-31T13:11:46.772Z,28.20
2022-07-31T13:14:16.675Z,28.50
2022-07-31T13:16:44.820Z,28.80
2022-07-31T13:19:12.954Z,29.20
2022-07-31T13:21:48.839Z,29.40
2022-07-31T13:24:18.782Z,29.40
2022-07-31T13:26:46.988Z,29.30
2022-07-31T13:29:15.078Z,29.10
2022-07-31T13:31:43.488Z,28.90
2022-07-31T13:34:11.856Z,28.70
2022-07-31T13:36:40.234Z,28.50
2022-07-31T13:39:09.716Z,28.30
2022-07-31T13:41:39.067Z,28.10
2022-07-31T13:44:08.303Z,28.00
2022-07-31T13:46:36.908Z,27.90
2022-07-31T13:49:08.359Z,27.70
2022-07-31T13:51:37.196Z,27.50
2022-07-31T13:54:05.942Z,27.30
2022-07-31T13:56:41.993Z,26.90
2022-07-31T13:59:13.383Z,26.60
2022-07-31T14:02:03.034Z,26.30
2022-07-31T14:04:32.790Z,26.00
2022-07-31T14:07:07.500Z,25.70
2022-07-31T14:09:36.065Z,25.40
2022-07-31T14:12:06.254Z,25.20
2022-07-31T14:14:34.529Z,25.20
2022-07-31T14:17:02.639Z,25.20
2022-07-31T14:19:30.721Z,25.30
2022-07-31T14:22:13.908Z,25.50
2022-07-31T14:24:49.853Z,25.80
2022-07-31T14:27:21.535Z,26.10
2022-07-31T14:29:49.925Z,26.20
2022-07-31T14:32:19.183Z,26.20
2022-07-31T14:34:47.341Z,26.10
2022-07-31T14:37:15.451Z,26.00
2022-07-31T14:39:43.550Z,25.80
2022-07-31T14:42:12.582Z,25.50
2022-07-31T14:44:42.835Z,25.20
2022-07-31T14:47:11.176Z,25.00
2022-07-31T14:50:07.742Z,24.70
2022-07-31T14:52:27.905Z,24.50
2022-07-31T14:54:56.188Z,24.40
2022-07-31T14:57:24.296Z,24.10
2022-07-31T14:59:53.854Z,23.90
2022-07-31T15:02:22.891Z,23.70
2022-07-31T15:04:51.379Z,23.50
2022-07-31T15:07:34.802Z,23.30
2022-07-31T15:10:05.934Z,23.20
2022-07-31T15:12:34.079Z,23.10
2022-07-31T15:15:03.908Z,23.00
2022-07-31T15:17:32.167Z,22.90
2022-07-31T15:20:00.699Z,22.80
2022-07-31T15:22:28.977Z,22.70
2022-07-31T15:24:57.112Z,22.50
2022-07-31T15:27:25.691Z,22.40
2022-07-31T15:30:05.553Z,22.20
2022-07-31T15:32:38.159Z,22.10
2022-07-31T15:35:09.059Z,21.90
2022-07-31T15:37:38.826Z,21.70
2022-07-31T15:40:09.034Z,21.50
2022-07-31T15:45:24.536Z,21.20
2022-07-31T15:48:19.117Z,21.00
2022-07-31T15:50:47.319Z,20.90
2022-07-31T15:53:15.325Z,20.80
2022-07-31T15:55:43.422Z,20.60
2022-07-31T15:58:11.637Z,20.60
2022-07-31T16:00:39.785Z,20.50
2022-07-31T16:03:09.359Z,20.40
2022-07-31T16:05:43.535Z,20.30
2022-07-31T16:08:31.996Z,20.10
2022-07-31T16:11:03.262Z,19.90
2022-07-31T16:13:36.231Z,19.80
2022-07-31T16:16:04.574Z,19.60
2022-07-31T16:18:34.049Z,19.30
2022-07-31T16:21:02.219Z,19.10
2022-07-31T16:23:30.344Z,19.00
2022-07-31T16:25:58.425Z,18.80
2022-07-31T16:28:26.477Z,18.70
2022-07-31T16:30:54.517Z,18.60
2022-07-31T16:33:22.634Z,18.60
2022-07-31T16:35:52.043Z,18.50
2022-07-31T16:38:20.135Z,18.40
2022-07-31T16:40:53.103Z,18.40
2022-07-31T16:43:50.996Z,18.30
2022-07-31T16:46:09.934Z,18.30
2022-07-31T16:48:38.068Z,18.30
2022-07-31T16:51:08.092Z,18.20
2022-07-31T16:54:14.803Z,18.30
2022-07-31T16:56:24.588Z,18.30
2022-07-31T16:58:54.784Z,18.30
2022-07-31T17:01:57.433Z,18.20
2022-07-31T17:04:11.149Z,18.20
2022-07-31T17:06:40.602Z,18.20
2022-07-31T17:09:16.451Z,18.20
2022-07-31T17:11:47.645Z,18.10
2022-07-31T17:14:16.117Z,18.10
2022-07-31T17:16:47.584Z,18.20
2022-07-31T17:19:16.526Z,18.30
2022-07-31T17:22:07.429Z,18.20
2022-07-31T17:24:37.243Z,18.30
2022-07-31T17:27:06.766Z,18.30
2022-07-31T17:29:35.191Z,18.30
2022-07-31T17:32:03.330Z,18.40
2022-07-31T17:34:31.675Z,18.50
2022-07-31T17:36:59.790Z,18.60
2022-07-31T17:39:31.037Z,18.60
2022-07-31T17:41:59.548Z,18.70
2022-07-31T17:44:27.789Z,18.70
2022-07-31T17:47:01.214Z,18.70
2022-07-31T17:49:31.962Z,18.60
2022-07-31T17:52:00.615Z,18.60
2022-07-31T17:54:31.361Z,18.60
2022-07-31T17:56:59.631Z,18.60
2022-07-31T17:59:28.160Z,18.60
2022-07-31T18:02:00.320Z,18.70
2022-07-31T18:04:28.986Z,18.70
2022-07-31T18:06:57.306Z,18.70
2022-07-31T18:09:25.787Z,18.70
2022-07-31T18:11:55.901Z,18.60
2022-07-31T18:14:24.335Z,18.70
2022-07-31T18:16:53.073Z,18.70
2022-07-31T18:19:22.346Z,18.70
2022-07-31T18:21:51.376Z,18.70
2022-07-31T18:24:20.124Z,18.70
2022-07-31T18:26:49.365Z,18.70
2022-07-31T18:29:19.105Z,18.70
2022-07-31T18:31:50.307Z,18.70
2022-07-31T18:34:18.495Z,18.80
2022-07-31T18:36:47.911Z,18.80
2022-07-31T18:39:17.537Z,18.80
2022-07-31T18:41:48.796Z,18.80
2022-07-31T18:44:19.080Z,18.80
2022-07-31T18:46:47.140Z,18.80
2022-07-31T18:51:00.670Z,18.80
2022-07-31T18:52:04.089Z,18.80
2022-07-31T18:54:32.372Z,18.70
2022-07-31T18:57:00.527Z,18.80
2022-07-31T18:59:30.005Z,18.70
2022-07-31T19:01:59.327Z,18.60
2022-07-31T19:04:28.016Z,18.60
2022-07-31T19:06:56.433Z,18.60
2022-07-31T19:09:25.263Z,18.60
2022-07-31T19:12:03.601Z,18.60
2022-07-31T19:14:37.219Z,18.70
2022-07-31T19:17:05.909Z,18.60
2022-07-31T19:19:46.782Z,18.60
2022-07-31T19:22:25.008Z,18.70
2022-07-31T19:24:53.103Z,18.60
2022-07-31T19:27:21.896Z,18.60
2022-07-31T19:30:13.891Z,18.60
2022-07-31T19:32:42.314Z,18.60
2022-07-31T19:35:10.900Z,18.60
2022-07-31T19:37:38.998Z,18.60
2022-07-31T19:42:56.528Z,18.50
2022-07-31T19:45:26.428Z,18.50
2022-07-31T19:47:54.534Z,18.50
2022-07-31T19:50:22.714Z,18.40
2022-07-31T19:52:50.740Z,18.40
2022-07-31T19:55:18.953Z,18.40
2022-07-31T19:57:46.945Z,18.40
2022-07-31T20:00:15.703Z,18.40
2022-07-31T20:02:45.148Z,18.40
2022-07-31T20:05:13.476Z,18.40
2022-07-31T20:07:41.721Z,18.40
2022-07-31T20:10:11.145Z,18.40
2022-07-31T20:12:40.811Z,18.50
2022-07-31T20:15:10.475Z,18.40
2022-07-31T20:17:39.265Z,18.40
2022-07-31T20:20:15.621Z,18.40
2022-07-31T20:22:44.485Z,18.40
2022-07-31T20:25:20.492Z,18.40
2022-07-31T20:27:50.146Z,18.30
2022-07-31T20:30:22.014Z,18.40
2022-07-31T20:32:51.609Z,18.40
2022-07-31T20:35:31.217Z,18.40
2022-07-31T20:38:13.998Z,18.40
2022-07-31T20:40:52.814Z,18.40
2022-07-31T20:43:22.706Z,18.50
2022-07-31T20:45:50.834Z,18.50
2022-07-31T20:48:19.040Z,18.50
2022-07-31T20:50:48.683Z,18.50
2022-07-31T20:53:17.240Z,18.60
2022-07-31T20:55:47.155Z,18.50
2022-07-31T20:58:15.287Z,18.60
2022-07-31T21:00:43.664Z,18.60
2022-07-31T21:03:11.746Z,18.60
2022-07-31T21:05:40.487Z,18.60
2022-07-31T21:08:10.585Z,18.60
2022-07-31T21:10:39.157Z,18.60
2022-07-31T21:13:07.251Z,18.60
2022-07-31T21:15:41.871Z,18.60
2022-07-31T21:18:13.003Z,18.60
2022-07-31T21:20:50.806Z,18.60
2022-07-31T21:23:24.128Z,18.60
2022-07-31T21:25:52.802Z,18.60
2022-07-31T21:28:21.299Z,18.70
2022-07-31T21:30:49.690Z,18.60
2022-07-31T21:33:18.584Z,18.70
2022-07-31T21:35:47.058Z,18.70
2022-07-31T21:38:16.284Z,18.70
2022-07-31T21:40:47.261Z,18.70
2022-07-31T21:43:22.271Z,18.70
2022-07-31T21:45:57.564Z,18.60
2022-07-31T21:48:31.479Z,18.70
2022-07-31T21:51:00.883Z,18.70
2022-07-31T21:53:29.231Z,18.70
2022-07-31T21:56:01.702Z,18.70
2022-07-31T21:58:29.952Z,18.70
2022-07-31T22:00:58.113Z,18.70
2022-07-31T22:03:26.404Z,18.70
2022-07-31T22:06:12.275Z,18.70
2022-07-31T22:08:40.356Z,18.60
2022-07-31T22:11:10.076Z,18.60
2022-07-31T22:13:38.079Z,18.70
2022-07-31T22:16:07.650Z,18.70
2022-07-31T22:18:36.500Z,18.60
2022-07-31T22:21:07.219Z,18.60
2022-07-31T22:23:36.059Z,18.60
2022-07-31T22:26:04.675Z,18.60
2022-07-31T22:28:34.439Z,18.60
2022-07-31T22:31:03.094Z,18.60
2022-07-31T22:33:31.414Z,18.60
2022-07-31T22:36:02.641Z,18.60
2022-07-31T22:38:31.896Z,18.50
2022-07-31T22:41:00.819Z,18.50
2022-07-31T22:44:12.481Z,18.50
2022-07-31T22:46:19.342Z,18.50
2022-07-31T22:48:48.025Z,18.50
2022-07-31T22:51:16.283Z,18.50
2022-07-31T22:53:48.776Z,18.50
2022-07-31T22:56:17.399Z,18.50
2022-07-31T22:58:45.755Z,18.50
2022-07-31T23:01:14.086Z,18.50
2022-07-31T23:03:43.514Z,18.50
2022-07-31T23:06:31.337Z,18.50
2022-07-31T23:08:59.832Z,18.60
2022-07-31T23:11:28.184Z,18.50
2022-07-31T23:13:56.263Z,18.50
2022-07-31T23:16:24.357Z,18.50
2022-07-31T23:18:53.772Z,18.50
2022-07-31T23:21:22.301Z,18.60
2022-07-31T23:23:50.654Z,18.60
2022-07-31T23:26:19.706Z,18.50
2022-07-31T23:28:47.793Z,18.50
2022-07-31T23:31:16.392Z,18.50
2022-07-31T23:33:44.908Z,18.50
2022-07-31T23:36:14.604Z,18.50
2022-07-31T23:38:43.273Z,18.40
2022-07-31T23:41:11.656Z,18.50
2022-07-31T23:43:39.053Z,18.40
2022-07-31T23:46:07.228Z,18.40
2022-07-31T23:48:36.148Z,18.40
2022-07-31T23:51:07.462Z,18.30
2022-07-31T23:53:37.033Z,18.30
2022-07-31T23:56:05.360Z,18.20
2022-07-31T23:58:46.828Z,18.20
